Allerton, New York
Current Conditions -  °F | °C
As of 3:51 AM on Monday 24 Nov 2014 (Local Time) from KLGA Reporting Station
Moderate Rain Moderate Rain  
Wind Chill: 15°   Ceiling: 1000
Heat Index: 15°   Visibility: 3mi
Dew Point: 14°   Wind: 21mph
Humidity: 93%   Direction: 150°SSE
Pressure: 29.78"   Gusts: 29mph
Location:  40.8778°N, 73.8721°W
Report Text: KLGA 240851Z 15018G25KT 3SM RA BR BKN010 OVC016 15/14 A2978 RMK AO2 PK WND 14026/0841 SLP082 P0021 60035 T01500139 58057
Loading
Personal Weather Stations






























Interactive Weather Map New forecast layout! Learn more

10-Day Weather Forecast

Advertisements
Track Severe Weather on mobile